ADDS METAR Data

Data at: 2308 UTC 15 Aug 2018

METAR for:KLAX (Los Angeles Intl, CA, US)
Text:KLAX 152253Z 26014KT 10SM FEW012 FEW090 25/18 A2988 RMK AO2 SLP114 T02500183
Temperature: 25.0°C ( 77°F)
Dewpoint: 18.3°C ( 65°F) [RH = 66%]
Pressure (altimeter):29.88 inches Hg (1011.9 mb) [Sea level pressure: 1011.4 mb]
Winds:from the W (260 degrees) at 16 MPH (14 knots; 7.2 m/s)
Visibility:10 or more sm (16+ km)
Ceiling:at least 12,000 feet AGL
Clouds: few clouds at 1200 feet AGL, few clouds at 9000 feet AGL